sensor_id;sensor_type;location;lat;lon;timestamp;P1;durP1;ratioP1;P2;durP2;ratioP2
64923;SDS011;51436;44.692;39.214;2022-12-07T00:01:30;7.22;;;3.40;;
64923;SDS011;51436;44.692;39.214;2022-12-07T00:03:59;9.48;;;3.72;;
64923;SDS011;51436;44.692;39.214;2022-12-07T00:06:32;9.00;;;3.25;;
64923;SDS011;51436;44.692;39.214;2022-12-07T00:09:00;7.55;;;4.05;;
64923;SDS011;51436;44.692;39.214;2022-12-07T00:11:41;8.48;;;3.33;;
64923;SDS011;51436;44.692;39.214;2022-12-07T00:14:10;5.10;;;3.03;;
64923;SDS011;51436;44.692;39.214;2022-12-07T00:16:39;5.68;;;3.90;;
64923;SDS011;51436;44.692;39.214;2022-12-07T00:19:08;9.27;;;4.30;;
64923;SDS011;51436;44.692;39.214;2022-12-07T00:21:36;9.88;;;4.43;;
64923;SDS011;51436;44.692;39.214;2022-12-07T00:24:04;12.13;;;4.55;;
64923;SDS011;51436;44.692;39.214;2022-12-07T00:26:34;16.27;;;4.43;;
64923;SDS011;51436;44.692;39.214;2022-12-07T00:29:06;10.98;;;4.75;;
64923;SDS011;51436;44.692;39.214;2022-12-07T00:31:37;11.35;;;4.22;;
64923;SDS011;51436;44.692;39.214;2022-12-07T00:34:07;7.65;;;3.80;;
64923;SDS011;51436;44.692;39.214;2022-12-07T00:36:39;5.95;;;3.78;;
64923;SDS011;51436;44.692;39.214;2022-12-07T00:39:06;5.97;;;3.85;;
64923;SDS011;51436;44.692;39.214;2022-12-07T00:41:34;9.65;;;4.50;;
64923;SDS011;51436;44.692;39.214;2022-12-07T00:44:01;7.60;;;3.33;;
64923;SDS011;51436;44.692;39.214;2022-12-07T00:46:28;8.57;;;4.40;;
64923;SDS011;51436;44.692;39.214;2022-12-07T00:48:55;6.25;;;4.05;;
64923;SDS011;51436;44.692;39.214;2022-12-07T00:51:23;4.78;;;3.28;;
64923;SDS011;51436;44.692;39.214;2022-12-07T00:53:51;4.68;;;3.00;;
64923;SDS011;51436;44.692;39.214;2022-12-07T00:56:20;10.25;;;3.42;;
64923;SDS011;51436;44.692;39.214;2022-12-07T00:58:59;3.72;;;3.28;;
64923;SDS011;51436;44.692;39.214;2022-12-07T01:09:25;6.90;;;3.47;;
64923;SDS011;51436;44.692;39.214;2022-12-07T01:11:51;4.93;;;3.28;;
64923;SDS011;51436;44.692;39.214;2022-12-07T01:14:18;6.05;;;2.95;;
64923;SDS011;51436;44.692;39.214;2022-12-07T01:16:45;9.80;;;3.53;;
64923;SDS011;51436;44.692;39.214;2022-12-07T01:19:12;5.90;;;3.95;;
64923;SDS011;51436;44.692;39.214;2022-12-07T01:21:38;5.18;;;3.67;;
64923;SDS011;51436;44.692;39.214;2022-12-07T01:24:06;5.85;;;3.63;;
64923;SDS011;51436;44.692;39.214;2022-12-07T01:26:37;7.57;;;4.03;;
64923;SDS011;51436;44.692;39.214;2022-12-07T01:29:05;7.18;;;3.90;;
64923;SDS011;51436;44.692;39.214;2022-12-07T01:31:32;4.65;;;4.03;;
64923;SDS011;51436;44.692;39.214;2022-12-07T01:34:00;3.80;;;3.10;;
64923;SDS011;51436;44.692;39.214;2022-12-07T01:36:30;6.55;;;3.63;;
64923;SDS011;51436;44.692;39.214;2022-12-07T01:39:03;5.03;;;3.45;;
64923;SDS011;51436;44.692;39.214;2022-12-07T01:41:34;6.30;;;3.35;;
64923;SDS011;51436;44.692;39.214;2022-12-07T01:46:35;5.63;;;4.15;;
64923;SDS011;51436;44.692;39.214;2022-12-07T01:49:02;5.22;;;3.20;;
64923;SDS011;51436;44.692;39.214;2022-12-07T01:51:41;9.43;;;4.18;;
64923;SDS011;51436;44.692;39.214;2022-12-07T01:54:10;9.77;;;3.72;;
64923;SDS011;51436;44.692;39.214;2022-12-07T01:56:40;6.05;;;3.47;;
64923;SDS011;51436;44.692;39.214;2022-12-07T01:59:11;5.28;;;3.20;;
64923;SDS011;51436;44.692;39.214;2022-12-07T02:01:39;12.70;;;3.58;;
64923;SDS011;51436;44.692;39.214;2022-12-07T02:04:06;7.63;;;3.55;;
64923;SDS011;51436;44.692;39.214;2022-12-07T02:06:38;7.47;;;3.85;;
64923;SDS011;51436;44.692;39.214;2022-12-07T02:09:04;5.70;;;3.35;;
64923;SDS011;51436;44.692;39.214;2022-12-07T02:11:48;6.32;;;3.42;;
64923;SDS011;51436;44.692;39.214;2022-12-07T02:14:16;8.57;;;4.10;;
64923;SDS011;51436;44.692;39.214;2022-12-07T02:16:51;7.20;;;4.28;;
64923;SDS011;51436;44.692;39.214;2022-12-07T02:30:48;5.43;;;3.63;;
64923;SDS011;51436;44.692;39.214;2022-12-07T02:33:20;7.70;;;4.32;;
64923;SDS011;51436;44.692;39.214;2022-12-07T02:36:12;3.40;;;3.05;;
64923;SDS011;51436;44.692;39.214;2022-12-07T02:38:45;9.23;;;5.43;;
64923;SDS011;51436;44.692;39.214;2022-12-07T02:41:22;5.00;;;3.92;;
64923;SDS011;51436;44.692;39.214;2022-12-07T02:43:52;6.05;;;4.50;;
64923;SDS011;51436;44.692;39.214;2022-12-07T02:46:27;11.80;;;5.80;;
64923;SDS011;51436;44.692;39.214;2022-12-07T02:48:59;7.80;;;4.05;;
64923;SDS011;51436;44.692;39.214;2022-12-07T02:51:30;12.23;;;8.93;;
64923;SDS011;51436;44.692;39.214;2022-12-07T02:53:58;7.22;;;4.47;;
64923;SDS011;51436;44.692;39.214;2022-12-07T03:04:52;9.70;;;3.97;;
64923;SDS011;51436;44.692;39.214;2022-12-07T03:13:38;10.23;;;5.20;;
64923;SDS011;51436;44.692;39.214;2022-12-07T03:18:49;5.35;;;3.97;;
64923;SDS011;51436;44.692;39.214;2022-12-07T03:21:22;8.30;;;3.80;;
64923;SDS011;51436;44.692;39.214;2022-12-07T03:23:53;4.63;;;3.92;;
64923;SDS011;51436;44.692;39.214;2022-12-07T03:26:24;8.52;;;4.72;;
64923;SDS011;51436;44.692;39.214;2022-12-07T03:28:58;10.02;;;3.90;;
64923;SDS011;51436;44.692;39.214;2022-12-07T03:31:29;7.18;;;4.05;;
64923;SDS011;51436;44.692;39.214;2022-12-07T03:34:06;18.73;;;4.88;;
64923;SDS011;51436;44.692;39.214;2022-12-07T03:37:11;8.55;;;4.88;;
64923;SDS011;51436;44.692;39.214;2022-12-07T03:40:19;5.67;;;4.10;;
64923;SDS011;51436;44.692;39.214;2022-12-07T03:42:41;6.30;;;3.92;;
64923;SDS011;51436;44.692;39.214;2022-12-07T03:45:08;15.90;;;4.32;;
64923;SDS011;51436;44.692;39.214;2022-12-07T03:48:20;8.20;;;3.85;;
64923;SDS011;51436;44.692;39.214;2022-12-07T03:50:44;5.28;;;3.72;;
64923;SDS011;51436;44.692;39.214;2022-12-07T03:53:19;5.35;;;3.13;;
64923;SDS011;51436;44.692;39.214;2022-12-07T03:55:52;10.90;;;3.70;;
64923;SDS011;51436;44.692;39.214;2022-12-07T03:58:20;3.88;;;2.75;;
64923;SDS011;51436;44.692;39.214;2022-12-07T04:00:49;5.63;;;3.45;;
64923;SDS011;51436;44.692;39.214;2022-12-07T04:03:16;6.28;;;4.25;;
64923;SDS011;51436;44.692;39.214;2022-12-07T04:05:42;4.57;;;3.70;;
64923;SDS011;51436;44.692;39.214;2022-12-07T04:08:09;12.27;;;3.78;;
64923;SDS011;51436;44.692;39.214;2022-12-07T04:10:36;8.55;;;4.97;;
64923;SDS011;51436;44.692;39.214;2022-12-07T04:13:02;6.45;;;3.38;;
64923;SDS011;51436;44.692;39.214;2022-12-07T04:15:29;4.55;;;3.78;;
64923;SDS011;51436;44.692;39.214;2022-12-07T04:17:55;8.13;;;3.22;;
64923;SDS011;51436;44.692;39.214;2022-12-07T04:20:22;5.30;;;3.47;;
64923;SDS011;51436;44.692;39.214;2022-12-07T04:22:48;7.07;;;4.03;;
64923;SDS011;51436;44.692;39.214;2022-12-07T04:25:14;5.82;;;3.60;;
64923;SDS011;51436;44.692;39.214;2022-12-07T04:27:41;5.70;;;3.40;;
64923;SDS011;51436;44.692;39.214;2022-12-07T04:30:08;5.43;;;3.42;;
64923;SDS011;51436;44.692;39.214;2022-12-07T04:32:34;5.82;;;3.55;;
64923;SDS011;51436;44.692;39.214;2022-12-07T04:35:01;6.40;;;3.88;;
64923;SDS011;51436;44.692;39.214;2022-12-07T04:37:27;8.02;;;3.35;;
64923;SDS011;51436;44.692;39.214;2022-12-07T04:39:54;59.72;;;43.40;;
64923;SDS011;51436;44.692;39.214;2022-12-07T04:42:20;73.00;;;48.30;;
64923;SDS011;51436;44.692;39.214;2022-12-07T04:44:46;95.25;;;54.47;;
64923;SDS011;51436;44.692;39.214;2022-12-07T04:47:13;111.22;;;59.08;;
64923;SDS011;51436;44.692;39.214;2022-12-07T04:49:39;92.20;;;53.78;;
64923;SDS011;51436;44.692;39.214;2022-12-07T04:52:06;91.10;;;53.70;;
64923;SDS011;51436;44.692;39.214;2022-12-07T04:54:32;93.97;;;53.65;;
64923;SDS011;51436;44.692;39.214;2022-12-07T04:56:59;103.95;;;56.95;;
64923;SDS011;51436;44.692;39.214;2022-12-07T04:59:25;105.40;;;57.53;;
64923;SDS011;51436;44.692;39.214;2022-12-07T05:01:51;98.15;;;55.33;;
64923;SDS011;51436;44.692;39.214;2022-12-07T05:04:18;98.57;;;54.92;;
64923;SDS011;51436;44.692;39.214;2022-12-07T05:06:44;100.85;;;55.92;;
64923;SDS011;51436;44.692;39.214;2022-12-07T05:09:11;99.57;;;55.78;;
64923;SDS011;51436;44.692;39.214;2022-12-07T05:11:37;105.88;;;57.25;;
64923;SDS011;51436;44.692;39.214;2022-12-07T05:14:05;106.82;;;57.20;;
64923;SDS011;51436;44.692;39.214;2022-12-07T05:16:33;123.72;;;62.20;;
64923;SDS011;51436;44.692;39.214;2022-12-07T05:19:00;146.38;;;68.30;;
64923;SDS011;51436;44.692;39.214;2022-12-07T05:21:26;148.32;;;68.78;;
64923;SDS011;51436;44.692;39.214;2022-12-07T05:23:53;125.82;;;62.92;;
64923;SDS011;51436;44.692;39.214;2022-12-07T05:26:19;122.20;;;62.30;;
64923;SDS011;51436;44.692;39.214;2022-12-07T05:28:50;89.53;;;50.70;;
64923;SDS011;51436;44.692;39.214;2022-12-07T05:31:18;77.80;;;48.70;;
64923;SDS011;51436;44.692;39.214;2022-12-07T05:33:44;78.80;;;49.10;;
64923;SDS011;51436;44.692;39.214;2022-12-07T05:36:11;77.30;;;49.20;;
64923;SDS011;51436;44.692;39.214;2022-12-07T05:38:37;65.47;;;44.53;;
64923;SDS011;51436;44.692;39.214;2022-12-07T05:41:05;70.47;;;47.35;;
64923;SDS011;51436;44.692;39.214;2022-12-07T05:43:32;80.07;;;49.72;;
64923;SDS011;51436;44.692;39.214;2022-12-07T05:45:59;66.13;;;46.63;;
64923;SDS011;51436;44.692;39.214;2022-12-07T05:48:25;57.47;;;42.13;;
64923;SDS011;51436;44.692;39.214;2022-12-07T05:50:52;60.90;;;44.15;;
64923;SDS011;51436;44.692;39.214;2022-12-07T05:53:18;77.15;;;46.42;;
64923;SDS011;51436;44.692;39.214;2022-12-07T05:55:45;65.82;;;45.35;;
64923;SDS011;51436;44.692;39.214;2022-12-07T05:58:11;84.68;;;51.22;;
64923;SDS011;51436;44.692;39.214;2022-12-07T06:03:42;56.97;;;42.70;;
64923;SDS011;51436;44.692;39.214;2022-12-07T06:06:08;59.85;;;42.67;;
64923;SDS011;51436;44.692;39.214;2022-12-07T06:08:35;63.10;;;44.75;;
64923;SDS011;51436;44.692;39.214;2022-12-07T06:11:01;56.08;;;42.15;;
64923;SDS011;51436;44.692;39.214;2022-12-07T06:13:46;42.03;;;36.53;;
64923;SDS011;51436;44.692;39.214;2022-12-07T06:16:13;25.52;;;23.05;;
64923;SDS011;51436;44.692;39.214;2022-12-07T06:18:39;33.75;;;30.05;;
64923;SDS011;51436;44.692;39.214;2022-12-07T06:21:06;10.15;;;6.28;;
64923;SDS011;51436;44.692;39.214;2022-12-07T06:23:32;32.15;;;28.52;;
64923;SDS011;51436;44.692;39.214;2022-12-07T06:25:58;12.48;;;5.85;;
64923;SDS011;51436;44.692;39.214;2022-12-07T06:28:41;11.43;;;5.30;;
64923;SDS011;51436;44.692;39.214;2022-12-07T06:31:37;14.07;;;7.70;;
64923;SDS011;51436;44.692;39.214;2022-12-07T06:34:05;9.32;;;6.18;;
64923;SDS011;51436;44.692;39.214;2022-12-07T06:36:34;9.82;;;6.60;;
64923;SDS011;51436;44.692;39.214;2022-12-07T06:39:01;9.52;;;6.63;;
64923;SDS011;51436;44.692;39.214;2022-12-07T06:41:27;11.40;;;6.18;;
64923;SDS011;51436;44.692;39.214;2022-12-07T06:43:56;11.38;;;6.80;;
64923;SDS011;51436;44.692;39.214;2022-12-07T06:46:23;11.35;;;6.05;;
64923;SDS011;51436;44.692;39.214;2022-12-07T06:51:36;9.70;;;6.35;;
64923;SDS011;51436;44.692;39.214;2022-12-07T06:54:07;9.70;;;6.57;;
64923;SDS011;51436;44.692;39.214;2022-12-07T06:56:37;11.65;;;6.18;;
64923;SDS011;51436;44.692;39.214;2022-12-07T06:59:06;10.25;;;5.93;;
64923;SDS011;51436;44.692;39.214;2022-12-07T07:01:34;13.27;;;6.93;;
64923;SDS011;51436;44.692;39.214;2022-12-07T07:04:01;13.73;;;6.57;;
64923;SDS011;51436;44.692;39.214;2022-12-07T07:06:27;10.10;;;7.07;;
64923;SDS011;51436;44.692;39.214;2022-12-07T07:08:54;15.27;;;8.88;;
64923;SDS011;51436;44.692;39.214;2022-12-07T07:19:40;8.10;;;6.15;;
64923;SDS011;51436;44.692;39.214;2022-12-07T07:22:03;11.23;;;6.78;;
64923;SDS011;51436;44.692;39.214;2022-12-07T07:24:30;5.88;;;4.75;;
64923;SDS011;51436;44.692;39.214;2022-12-07T07:26:56;17.15;;;8.07;;
64923;SDS011;51436;44.692;39.214;2022-12-07T07:29:22;14.57;;;6.63;;
64923;SDS011;51436;44.692;39.214;2022-12-07T07:31:49;13.88;;;7.00;;
64923;SDS011;51436;44.692;39.214;2022-12-07T07:34:15;9.90;;;6.18;;
64923;SDS011;51436;44.692;39.214;2022-12-07T07:36:41;34.08;;;30.52;;
64923;SDS011;51436;44.692;39.214;2022-12-07T07:39:09;29.25;;;25.88;;
64923;SDS011;51436;44.692;39.214;2022-12-07T07:41:38;7.07;;;4.88;;
64923;SDS011;51436;44.692;39.214;2022-12-07T07:44:11;35.60;;;31.97;;
64923;SDS011;51436;44.692;39.214;2022-12-07T07:46:38;41.00;;;33.45;;
64923;SDS011;51436;44.692;39.214;2022-12-07T07:49:04;9.40;;;4.93;;
64923;SDS011;51436;44.692;39.214;2022-12-07T07:51:30;71.85;;;47.88;;
64923;SDS011;51436;44.692;39.214;2022-12-07T07:53:57;175.20;;;76.53;;
64923;SDS011;51436;44.692;39.214;2022-12-07T07:56:23;229.77;;;93.25;;
64923;SDS011;51436;44.692;39.214;2022-12-07T07:58:52;29.55;;;26.83;;
64923;SDS011;51436;44.692;39.214;2022-12-07T08:01:19;53.53;;;42.33;;
64923;SDS011;51436;44.692;39.214;2022-12-07T08:03:46;79.40;;;49.78;;
64923;SDS011;51436;44.692;39.214;2022-12-07T08:06:12;102.22;;;56.55;;
64923;SDS011;51436;44.692;39.214;2022-12-07T08:08:39;237.75;;;93.15;;
64923;SDS011;51436;44.692;39.214;2022-12-07T08:11:06;29.33;;;26.50;;
64923;SDS011;51436;44.692;39.214;2022-12-07T08:13:33;22.02;;;19.67;;
64923;SDS011;51436;44.692;39.214;2022-12-07T08:16:04;15.65;;;12.75;;
64923;SDS011;51436;44.692;39.214;2022-12-07T08:18:34;8.13;;;7.13;;
64923;SDS011;51436;44.692;39.214;2022-12-07T08:21:02;20.73;;;9.95;;
64923;SDS011;51436;44.692;39.214;2022-12-07T08:23:29;9.15;;;7.40;;
64923;SDS011;51436;44.692;39.214;2022-12-07T08:26:03;18.50;;;9.23;;
64923;SDS011;51436;44.692;39.214;2022-12-07T08:28:32;8.32;;;7.18;;
64923;SDS011;51436;44.692;39.214;2022-12-07T08:31:01;11.05;;;7.00;;
64923;SDS011;51436;44.692;39.214;2022-12-07T08:33:37;15.43;;;8.98;;
64923;SDS011;51436;44.692;39.214;2022-12-07T08:36:04;17.23;;;8.68;;
64923;SDS011;51436;44.692;39.214;2022-12-07T08:38:33;7.13;;;6.40;;
64923;SDS011;51436;44.692;39.214;2022-12-07T08:41:01;8.85;;;5.63;;
64923;SDS011;51436;44.692;39.214;2022-12-07T08:43:28;11.38;;;6.57;;
64923;SDS011;51436;44.692;39.214;2022-12-07T08:46:06;13.25;;;7.05;;
64923;SDS011;51436;44.692;39.214;2022-12-07T08:48:43;10.70;;;8.53;;
64923;SDS011;51436;44.692;39.214;2022-12-07T08:51:18;9.45;;;7.35;;
64923;SDS011;51436;44.692;39.214;2022-12-07T08:53:47;8.35;;;6.63;;
64923;SDS011;51436;44.692;39.214;2022-12-07T08:56:15;9.13;;;8.18;;
64923;SDS011;51436;44.692;39.214;2022-12-07T08:58:41;46.95;;;34.08;;
64923;SDS011;51436;44.692;39.214;2022-12-07T09:01:09;114.75;;;58.22;;
64923;SDS011;51436;44.692;39.214;2022-12-07T09:03:36;128.60;;;56.88;;
64923;SDS011;51436;44.692;39.214;2022-12-07T09:06:02;16.42;;;6.95;;
64923;SDS011;51436;44.692;39.214;2022-12-07T09:08:30;8.88;;;5.28;;
64923;SDS011;51436;44.692;39.214;2022-12-07T09:11:02;13.75;;;6.20;;
64923;SDS011;51436;44.692;39.214;2022-12-07T09:13:28;10.80;;;5.95;;
64923;SDS011;51436;44.692;39.214;2022-12-07T09:15:55;25.60;;;6.88;;
64923;SDS011;51436;44.692;39.214;2022-12-07T09:18:23;9.73;;;5.20;;
64923;SDS011;51436;44.692;39.214;2022-12-07T09:20:50;11.65;;;6.00;;
64923;SDS011;51436;44.692;39.214;2022-12-07T09:23:17;11.05;;;6.55;;
64923;SDS011;51436;44.692;39.214;2022-12-07T09:25:43;15.90;;;5.43;;
64923;SDS011;51436;44.692;39.214;2022-12-07T09:28:09;12.65;;;5.68;;
64923;SDS011;51436;44.692;39.214;2022-12-07T09:30:36;8.25;;;5.05;;
64923;SDS011;51436;44.692;39.214;2022-12-07T09:33:02;9.10;;;4.80;;
64923;SDS011;51436;44.692;39.214;2022-12-07T09:35:28;12.20;;;6.32;;
64923;SDS011;51436;44.692;39.214;2022-12-07T09:37:55;9.55;;;6.32;;
64923;SDS011;51436;44.692;39.214;2022-12-07T09:40:22;24.48;;;9.73;;
64923;SDS011;51436;44.692;39.214;2022-12-07T09:42:51;17.15;;;8.02;;
64923;SDS011;51436;44.692;39.214;2022-12-07T09:45:38;13.80;;;6.07;;
64923;SDS011;51436;44.692;39.214;2022-12-07T09:48:05;13.80;;;6.70;;
64923;SDS011;51436;44.692;39.214;2022-12-07T09:50:40;12.30;;;6.63;;
64923;SDS011;51436;44.692;39.214;2022-12-07T09:53:13;11.25;;;5.78;;
64923;SDS011;51436;44.692;39.214;2022-12-07T09:55:45;13.35;;;6.88;;
64923;SDS011;51436;44.692;39.214;2022-12-07T09:58:30;9.20;;;5.45;;
64923;SDS011;51436;44.692;39.214;2022-12-07T10:01:01;13.95;;;6.10;;
64923;SDS011;51436;44.692;39.214;2022-12-07T10:03:37;13.80;;;7.45;;
64923;SDS011;51436;44.692;39.214;2022-12-07T10:06:05;10.98;;;6.25;;
64923;SDS011;51436;44.692;39.214;2022-12-07T10:08:33;8.10;;;5.15;;
64923;SDS011;51436;44.692;39.214;2022-12-07T10:11:01;13.25;;;6.85;;
64923;SDS011;51436;44.692;39.214;2022-12-07T10:13:37;13.35;;;6.30;;
64923;SDS011;51436;44.692;39.214;2022-12-07T10:16:30;23.77;;;7.25;;
64923;SDS011;51436;44.692;39.214;2022-12-07T10:19:19;12.32;;;6.13;;
64923;SDS011;51436;44.692;39.214;2022-12-07T10:22:11;16.70;;;6.30;;
64923;SDS011;51436;44.692;39.214;2022-12-07T10:24:39;9.80;;;5.30;;
64923;SDS011;51436;44.692;39.214;2022-12-07T10:27:17;17.90;;;6.80;;
64923;SDS011;51436;44.692;39.214;2022-12-07T10:30:02;8.98;;;5.10;;
64923;SDS011;51436;44.692;39.214;2022-12-07T10:32:54;12.02;;;6.05;;
64923;SDS011;51436;44.692;39.214;2022-12-07T10:35:22;7.65;;;5.03;;
64923;SDS011;51436;44.692;39.214;2022-12-07T10:37:54;15.83;;;6.97;;
64923;SDS011;51436;44.692;39.214;2022-12-07T10:40:25;19.25;;;8.63;;
64923;SDS011;51436;44.692;39.214;2022-12-07T10:48:19;35.17;;;12.45;;
64923;SDS011;51436;44.692;39.214;2022-12-07T10:57:02;16.17;;;5.93;;
64923;SDS011;51436;44.692;39.214;2022-12-07T11:05:39;10.27;;;5.70;;
64923;SDS011;51436;44.692;39.214;2022-12-07T11:11:14;7.68;;;4.22;;
64923;SDS011;51436;44.692;39.214;2022-12-07T11:14:37;10.70;;;4.75;;
64923;SDS011;51436;44.692;39.214;2022-12-07T11:17:02;10.90;;;4.95;;
64923;SDS011;51436;44.692;39.214;2022-12-07T11:22:45;9.77;;;5.38;;
64923;SDS011;51436;44.692;39.214;2022-12-07T11:25:17;13.52;;;6.43;;
64923;SDS011;51436;44.692;39.214;2022-12-07T11:30:23;9.70;;;5.25;;
64923;SDS011;51436;44.692;39.214;2022-12-07T11:35:39;12.38;;;5.60;;
64923;SDS011;51436;44.692;39.214;2022-12-07T11:38:20;11.63;;;6.07;;
64923;SDS011;51436;44.692;39.214;2022-12-07T11:40:51;10.25;;;5.82;;
64923;SDS011;51436;44.692;39.214;2022-12-07T11:43:32;16.27;;;5.65;;
64923;SDS011;51436;44.692;39.214;2022-12-07T11:51:11;11.15;;;4.90;;
64923;SDS011;51436;44.692;39.214;2022-12-07T11:56:39;12.55;;;5.22;;
64923;SDS011;51436;44.692;39.214;2022-12-07T12:07:15;9.38;;;4.60;;
64923;SDS011;51436;44.692;39.214;2022-12-07T12:09:49;9.80;;;5.03;;
64923;SDS011;51436;44.692;39.214;2022-12-07T12:12:53;9.80;;;6.13;;
64923;SDS011;51436;44.692;39.214;2022-12-07T12:18:39;11.35;;;5.20;;
64923;SDS011;51436;44.692;39.214;2022-12-07T12:21:27;10.63;;;5.85;;
64923;SDS011;51436;44.692;39.214;2022-12-07T12:23:57;12.18;;;6.10;;
64923;SDS011;51436;44.692;39.214;2022-12-07T12:26:35;12.98;;;6.57;;
64923;SDS011;51436;44.692;39.214;2022-12-07T12:29:04;12.10;;;7.22;;
64923;SDS011;51436;44.692;39.214;2022-12-07T12:31:36;13.15;;;6.30;;
64923;SDS011;51436;44.692;39.214;2022-12-07T12:38:20;10.60;;;6.63;;
64923;SDS011;51436;44.692;39.214;2022-12-07T12:40:42;15.55;;;5.80;;
64923;SDS011;51436;44.692;39.214;2022-12-07T12:42:50;16.65;;;7.30;;
64923;SDS011;51436;44.692;39.214;2022-12-07T12:45:25;22.52;;;8.70;;
64923;SDS011;51436;44.692;39.214;2022-12-07T12:47:59;23.35;;;9.45;;
64923;SDS011;51436;44.692;39.214;2022-12-07T12:50:37;18.55;;;8.52;;
64923;SDS011;51436;44.692;39.214;2022-12-07T12:53:20;13.60;;;6.82;;
64923;SDS011;51436;44.692;39.214;2022-12-07T12:56:02;32.33;;;10.80;;
64923;SDS011;51436;44.692;39.214;2022-12-07T12:59:17;16.52;;;7.15;;
64923;SDS011;51436;44.692;39.214;2022-12-07T13:02:05;9.63;;;6.43;;
64923;SDS011;51436;44.692;39.214;2022-12-07T13:10:20;7.47;;;4.50;;
64923;SDS011;51436;44.692;39.214;2022-12-07T13:15:41;18.05;;;7.57;;
64923;SDS011;51436;44.692;39.214;2022-12-07T13:32:24;18.73;;;8.77;;
64923;SDS011;51436;44.692;39.214;2022-12-07T13:34:56;32.63;;;12.00;;
64923;SDS011;51436;44.692;39.214;2022-12-07T13:39:54;60.22;;;26.58;;
64923;SDS011;51436;44.692;39.214;2022-12-07T13:42:25;50.95;;;20.05;;
64923;SDS011;51436;44.692;39.214;2022-12-07T13:44:54;49.40;;;20.63;;
64923;SDS011;51436;44.692;39.214;2022-12-07T13:47:39;32.92;;;11.65;;
64923;SDS011;51436;44.692;39.214;2022-12-07T13:50:25;13.48;;;7.55;;
64923;SDS011;51436;44.692;39.214;2022-12-07T13:52:54;15.02;;;5.65;;
64923;SDS011;51436;44.692;39.214;2022-12-07T13:55:22;10.52;;;5.20;;
64923;SDS011;51436;44.692;39.214;2022-12-07T13:57:50;11.77;;;5.53;;
64923;SDS011;51436;44.692;39.214;2022-12-07T14:00:18;12.43;;;5.38;;
64923;SDS011;51436;44.692;39.214;2022-12-07T14:05:39;36.65;;;6.47;;
64923;SDS011;51436;44.692;39.214;2022-12-07T14:10:39;8.43;;;5.22;;
64923;SDS011;51436;44.692;39.214;2022-12-07T14:16:29;15.00;;;7.05;;
64923;SDS011;51436;44.692;39.214;2022-12-07T14:18:59;14.02;;;7.05;;
64923;SDS011;51436;44.692;39.214;2022-12-07T14:21:28;19.77;;;6.60;;
64923;SDS011;51436;44.692;39.214;2022-12-07T14:24:10;27.92;;;7.90;;
64923;SDS011;51436;44.692;39.214;2022-12-07T14:26:40;14.93;;;7.57;;
64923;SDS011;51436;44.692;39.214;2022-12-07T14:34:22;17.70;;;5.70;;
64923;SDS011;51436;44.692;39.214;2022-12-07T14:36:49;15.95;;;6.47;;
64923;SDS011;51436;44.692;39.214;2022-12-07T14:39:16;15.07;;;6.25;;
64923;SDS011;51436;44.692;39.214;2022-12-07T14:41:43;21.63;;;6.88;;
64923;SDS011;51436;44.692;39.214;2022-12-07T14:44:19;22.52;;;8.88;;
64923;SDS011;51436;44.692;39.214;2022-12-07T14:46:48;27.85;;;8.30;;
64923;SDS011;51436;44.692;39.214;2022-12-07T14:49:15;32.92;;;9.60;;
64923;SDS011;51436;44.692;39.214;2022-12-07T14:52:00;22.27;;;9.52;;
64923;SDS011;51436;44.692;39.214;2022-12-07T14:54:27;27.10;;;8.55;;
64923;SDS011;51436;44.692;39.214;2022-12-07T14:56:58;23.63;;;7.70;;
64923;SDS011;51436;44.692;39.214;2022-12-07T14:59:29;16.40;;;6.38;;
64923;SDS011;51436;44.692;39.214;2022-12-07T15:01:55;16.05;;;7.13;;
64923;SDS011;51436;44.692;39.214;2022-12-07T15:04:22;20.95;;;7.90;;
64923;SDS011;51436;44.692;39.214;2022-12-07T15:06:59;22.13;;;8.38;;
64923;SDS011;51436;44.692;39.214;2022-12-07T15:12:13;21.33;;;7.78;;
64923;SDS011;51436;44.692;39.214;2022-12-07T15:14:39;28.95;;;7.50;;
64923;SDS011;51436;44.692;39.214;2022-12-07T15:17:06;33.95;;;9.52;;
64923;SDS011;51436;44.692;39.214;2022-12-07T15:19:32;26.30;;;8.73;;
64923;SDS011;51436;44.692;39.214;2022-12-07T15:24:45;16.02;;;7.80;;
64923;SDS011;51436;44.692;39.214;2022-12-07T15:27:12;19.38;;;7.75;;
64923;SDS011;51436;44.692;39.214;2022-12-07T15:29:38;42.13;;;11.98;;
64923;SDS011;51436;44.692;39.214;2022-12-07T15:32:05;25.55;;;10.43;;
64923;SDS011;51436;44.692;39.214;2022-12-07T15:34:31;37.97;;;10.60;;
64923;SDS011;51436;44.692;39.214;2022-12-07T15:36:58;25.58;;;9.30;;
64923;SDS011;51436;44.692;39.214;2022-12-07T15:39:24;19.88;;;9.43;;
64923;SDS011;51436;44.692;39.214;2022-12-07T15:41:51;27.70;;;12.13;;
64923;SDS011;51436;44.692;39.214;2022-12-07T15:44:17;140.38;;;54.85;;
64923;SDS011;51436;44.692;39.214;2022-12-07T15:47:03;99.03;;;36.13;;
64923;SDS011;51436;44.692;39.214;2022-12-07T15:49:30;93.43;;;34.90;;
64923;SDS011;51436;44.692;39.214;2022-12-07T15:51:56;72.00;;;27.08;;
64923;SDS011;51436;44.692;39.214;2022-12-07T15:54:24;41.53;;;19.70;;
64923;SDS011;51436;44.692;39.214;2022-12-07T15:56:52;68.55;;;22.13;;
64923;SDS011;51436;44.692;39.214;2022-12-07T15:59:20;85.30;;;30.92;;
64923;SDS011;51436;44.692;39.214;2022-12-07T16:01:46;70.57;;;27.05;;
64923;SDS011;51436;44.692;39.214;2022-12-07T16:04:13;84.20;;;33.03;;
64923;SDS011;51436;44.692;39.214;2022-12-07T16:06:39;69.55;;;40.30;;
64923;SDS011;51436;44.692;39.214;2022-12-07T16:09:06;61.80;;;37.17;;
64923;SDS011;51436;44.692;39.214;2022-12-07T16:11:33;43.70;;;23.55;;
64923;SDS011;51436;44.692;39.214;2022-12-07T16:13:59;59.58;;;29.63;;
64923;SDS011;51436;44.692;39.214;2022-12-07T16:16:26;58.80;;;29.40;;
64923;SDS011;51436;44.692;39.214;2022-12-07T16:18:53;121.93;;;72.72;;
64923;SDS011;51436;44.692;39.214;2022-12-07T16:21:19;101.20;;;65.75;;
64923;SDS011;51436;44.692;39.214;2022-12-07T16:23:46;109.80;;;63.55;;
64923;SDS011;51436;44.692;39.214;2022-12-07T16:26:13;72.60;;;46.70;;
64923;SDS011;51436;44.692;39.214;2022-12-07T16:28:42;85.00;;;50.92;;
64923;SDS011;51436;44.692;39.214;2022-12-07T16:31:10;88.28;;;55.92;;
64923;SDS011;51436;44.692;39.214;2022-12-07T16:33:41;158.48;;;96.00;;
64923;SDS011;51436;44.692;39.214;2022-12-07T16:36:09;131.10;;;80.65;;
64923;SDS011;51436;44.692;39.214;2022-12-07T16:38:37;136.40;;;83.20;;
64923;SDS011;51436;44.692;39.214;2022-12-07T16:41:07;164.35;;;90.50;;
64923;SDS011;51436;44.692;39.214;2022-12-07T16:43:34;62.55;;;33.08;;
64923;SDS011;51436;44.692;39.214;2022-12-07T16:46:01;30.85;;;25.85;;
64923;SDS011;51436;44.692;39.214;2022-12-07T16:48:28;43.30;;;31.95;;
64923;SDS011;51436;44.692;39.214;2022-12-07T16:50:56;35.30;;;27.90;;
64923;SDS011;51436;44.692;39.214;2022-12-07T16:53:23;52.47;;;36.47;;
64923;SDS011;51436;44.692;39.214;2022-12-07T16:55:50;20.83;;;13.60;;
64923;SDS011;51436;44.692;39.214;2022-12-07T16:58:17;17.20;;;6.53;;
64923;SDS011;51436;44.692;39.214;2022-12-07T17:00:44;11.55;;;6.47;;
64923;SDS011;51436;44.692;39.214;2022-12-07T17:03:12;24.17;;;6.57;;
64923;SDS011;51436;44.692;39.214;2022-12-07T17:05:40;17.00;;;7.15;;
64923;SDS011;51436;44.692;39.214;2022-12-07T17:08:07;17.65;;;8.55;;
64923;SDS011;51436;44.692;39.214;2022-12-07T17:10:39;27.30;;;24.42;;